sensor_id;sensor_type;location;lat;lon;timestamp;temperature;humidity
3846;DHT22;1938;50.812;7.738;2023-02-22T00:00:59;4.20;99.90
3846;DHT22;1938;50.812;7.738;2023-02-22T00:03:30;4.10;99.90
3846;DHT22;1938;50.812;7.738;2023-02-22T00:06:00;4.00;99.90
3846;DHT22;1938;50.812;7.738;2023-02-22T00:08:30;4.00;99.90
3846;DHT22;1938;50.812;7.738;2023-02-22T00:11:00;3.90;99.90
3846;DHT22;1938;50.812;7.738;2023-02-22T00:13:27;3.90;99.90
3846;DHT22;1938;50.812;7.738;2023-02-22T00:15:58;4.00;99.90
3846;DHT22;1938;50.812;7.738;2023-02-22T00:18:25;3.90;99.90
3846;DHT22;1938;50.812;7.738;2023-02-22T00:20:55;4.00;99.90
3846;DHT22;1938;50.812;7.738;2023-02-22T00:23:24;3.80;99.90
3846;DHT22;1938;50.812;7.738;2023-02-22T00:25:52;3.90;99.90
3846;DHT22;1938;50.812;7.738;2023-02-22T00:28:18;3.80;99.90
3846;DHT22;1938;50.812;7.738;2023-02-22T00:30:44;3.70;99.90
3846;DHT22;1938;50.812;7.738;2023-02-22T00:33:11;3.70;99.90
3846;DHT22;1938;50.812;7.738;2023-02-22T00:35:37;3.70;99.90
3846;DHT22;1938;50.812;7.738;2023-02-22T00:38:05;3.80;99.90
3846;DHT22;1938;50.812;7.738;2023-02-22T00:40:33;3.70;99.90
3846;DHT22;1938;50.812;7.738;2023-02-22T00:43:03;3.70;99.90
3846;DHT22;1938;50.812;7.738;2023-02-22T00:45:32;3.70;99.90
3846;DHT22;1938;50.812;7.738;2023-02-22T00:47:58;3.60;99.90
3846;DHT22;1938;50.812;7.738;2023-02-22T00:50:28;3.50;99.90
3846;DHT22;1938;50.812;7.738;2023-02-22T00:52:55;3.50;99.90
3846;DHT22;1938;50.812;7.738;2023-02-22T00:55:23;3.60;99.90
3846;DHT22;1938;50.812;7.738;2023-02-22T00:57:50;3.70;99.90
3846;DHT22;1938;50.812;7.738;2023-02-22T01:00:22;3.80;99.90
3846;DHT22;1938;50.812;7.738;2023-02-22T01:02:48;3.90;99.90
3846;DHT22;1938;50.812;7.738;2023-02-22T01:05:16;3.80;99.90
3846;DHT22;1938;50.812;7.738;2023-02-22T01:07:42;3.60;99.90
3846;DHT22;1938;50.812;7.738;2023-02-22T01:10:09;3.30;99.90
3846;DHT22;1938;50.812;7.738;2023-02-22T01:12:35;3.30;99.90
3846;DHT22;1938;50.812;7.738;2023-02-22T01:15:06;3.30;99.90
3846;DHT22;1938;50.812;7.738;2023-02-22T01:17:37;3.30;99.90
3846;DHT22;1938;50.812;7.738;2023-02-22T01:20:05;3.20;99.90
3846;DHT22;1938;50.812;7.738;2023-02-22T01:22:37;3.20;99.90
3846;DHT22;1938;50.812;7.738;2023-02-22T01:25:03;3.30;99.90
3846;DHT22;1938;50.812;7.738;2023-02-22T01:27:32;3.30;99.90
3846;DHT22;1938;50.812;7.738;2023-02-22T01:29:59;3.30;99.90
3846;DHT22;1938;50.812;7.738;2023-02-22T01:32:24;3.30;99.90
3846;DHT22;1938;50.812;7.738;2023-02-22T01:34:52;3.30;99.90
3846;DHT22;1938;50.812;7.738;2023-02-22T01:37:18;3.30;99.90
3846;DHT22;1938;50.812;7.738;2023-02-22T01:39:44;3.40;99.90
3846;DHT22;1938;50.812;7.738;2023-02-22T01:42:09;3.40;99.90
3846;DHT22;1938;50.812;7.738;2023-02-22T01:44:37;3.30;99.90
3846;DHT22;1938;50.812;7.738;2023-02-22T01:47:04;3.30;99.90
3846;DHT22;1938;50.812;7.738;2023-02-22T01:49:47;3.30;99.90
3846;DHT22;1938;50.812;7.738;2023-02-22T01:52:17;3.40;99.90
3846;DHT22;1938;50.812;7.738;2023-02-22T01:54:55;3.40;99.90
3846;DHT22;1938;50.812;7.738;2023-02-22T01:57:25;3.40;99.90
3846;DHT22;1938;50.812;7.738;2023-02-22T01:59:59;3.30;99.90
3846;DHT22;1938;50.812;7.738;2023-02-22T02:02:26;3.20;99.90
3846;DHT22;1938;50.812;7.738;2023-02-22T02:04:53;3.30;99.90
3846;DHT22;1938;50.812;7.738;2023-02-22T02:07:21;3.30;99.90
3846;DHT22;1938;50.812;7.738;2023-02-22T02:10:02;3.30;99.90
3846;DHT22;1938;50.812;7.738;2023-02-22T02:12:33;3.20;99.90
3846;DHT22;1938;50.812;7.738;2023-02-22T02:15:26;3.20;99.90
3846;DHT22;1938;50.812;7.738;2023-02-22T02:18:01;3.20;99.90
3846;DHT22;1938;50.812;7.738;2023-02-22T02:23:20;3.20;99.90
3846;DHT22;1938;50.812;7.738;2023-02-22T02:25:56;3.20;99.90
3846;DHT22;1938;50.812;7.738;2023-02-22T02:34:17;3.10;99.90
3846;DHT22;1938;50.812;7.738;2023-02-22T02:37:11;3.10;99.90
3846;DHT22;1938;50.812;7.738;2023-02-22T02:39:55;3.20;99.90
3846;DHT22;1938;50.812;7.738;2023-02-22T02:42:32;3.20;99.90
3846;DHT22;1938;50.812;7.738;2023-02-22T02:45:12;3.20;99.90
3846;DHT22;1938;50.812;7.738;2023-02-22T02:47:43;3.20;99.90
3846;DHT22;1938;50.812;7.738;2023-02-22T02:50:14;3.20;99.90
3846;DHT22;1938;50.812;7.738;2023-02-22T02:52:42;3.20;99.90
3846;DHT22;1938;50.812;7.738;2023-02-22T02:55:09;3.20;99.90
3846;DHT22;1938;50.812;7.738;2023-02-22T02:57:36;3.20;99.90
3846;DHT22;1938;50.812;7.738;2023-02-22T03:00:04;3.20;99.90
3846;DHT22;1938;50.812;7.738;2023-02-22T03:03:00;3.20;99.90
3846;DHT22;1938;50.812;7.738;2023-02-22T03:10:59;3.20;99.90
3846;DHT22;1938;50.812;7.738;2023-02-22T03:18:55;3.30;99.90
3846;DHT22;1938;50.812;7.738;2023-02-22T03:21:33;3.40;99.90
3846;DHT22;1938;50.812;7.738;2023-02-22T03:26:58;3.50;99.90
3846;DHT22;1938;50.812;7.738;2023-02-22T03:29:29;3.50;99.90
3846;DHT22;1938;50.812;7.738;2023-02-22T03:32:02;3.50;99.90
3846;DHT22;1938;50.812;7.738;2023-02-22T03:34:34;3.50;99.90
3846;DHT22;1938;50.812;7.738;2023-02-22T03:39:42;3.40;99.90
3846;DHT22;1938;50.812;7.738;2023-02-22T03:42:19;3.40;99.90
3846;DHT22;1938;50.812;7.738;2023-02-22T03:44:46;3.40;99.90
3846;DHT22;1938;50.812;7.738;2023-02-22T03:47:20;3.50;99.90
3846;DHT22;1938;50.812;7.738;2023-02-22T03:49:58;3.40;99.90
3846;DHT22;1938;50.812;7.738;2023-02-22T03:52:24;3.40;99.90
3846;DHT22;1938;50.812;7.738;2023-02-22T03:54:53;3.30;99.90
3846;DHT22;1938;50.812;7.738;2023-02-22T03:57:26;3.20;99.90
3846;DHT22;1938;50.812;7.738;2023-02-22T03:59:53;3.20;99.90
3846;DHT22;1938;50.812;7.738;2023-02-22T04:02:19;3.30;99.90
3846;DHT22;1938;50.812;7.738;2023-02-22T04:04:46;3.30;99.90
3846;DHT22;1938;50.812;7.738;2023-02-22T04:07:12;3.30;99.90
3846;DHT22;1938;50.812;7.738;2023-02-22T04:09:37;3.30;99.90
3846;DHT22;1938;50.812;7.738;2023-02-22T04:12:03;3.40;99.90
3846;DHT22;1938;50.812;7.738;2023-02-22T04:14:29;3.10;99.90
3846;DHT22;1938;50.812;7.738;2023-02-22T04:16:55;3.20;99.90
3846;DHT22;1938;50.812;7.738;2023-02-22T04:19:21;3.10;99.90
3846;DHT22;1938;50.812;7.738;2023-02-22T04:21:47;3.10;99.90
3846;DHT22;1938;50.812;7.738;2023-02-22T04:24:13;3.10;99.90
3846;DHT22;1938;50.812;7.738;2023-02-22T04:26:39;3.00;99.90
3846;DHT22;1938;50.812;7.738;2023-02-22T04:29:06;3.10;99.90
3846;DHT22;1938;50.812;7.738;2023-02-22T04:31:32;3.10;99.90
3846;DHT22;1938;50.812;7.738;2023-02-22T04:33:59;3.00;99.90
3846;DHT22;1938;50.812;7.738;2023-02-22T04:36:25;3.00;99.90
3846;DHT22;1938;50.812;7.738;2023-02-22T04:38:51;3.00;99.90
3846;DHT22;1938;50.812;7.738;2023-02-22T04:41:18;3.00;99.90
3846;DHT22;1938;50.812;7.738;2023-02-22T04:43:44;2.90;99.90
3846;DHT22;1938;50.812;7.738;2023-02-22T04:46:11;3.00;99.90
3846;DHT22;1938;50.812;7.738;2023-02-22T04:48:36;2.90;99.90
3846;DHT22;1938;50.812;7.738;2023-02-22T04:51:03;2.90;99.90
3846;DHT22;1938;50.812;7.738;2023-02-22T04:53:28;3.00;99.90
3846;DHT22;1938;50.812;7.738;2023-02-22T04:55:54;2.90;99.90
3846;DHT22;1938;50.812;7.738;2023-02-22T04:58:21;2.90;99.90
3846;DHT22;1938;50.812;7.738;2023-02-22T05:00:46;3.00;99.90
3846;DHT22;1938;50.812;7.738;2023-02-22T05:03:12;3.00;99.90
3846;DHT22;1938;50.812;7.738;2023-02-22T05:05:38;3.00;99.90
3846;DHT22;1938;50.812;7.738;2023-02-22T05:08:03;3.00;99.90
3846;DHT22;1938;50.812;7.738;2023-02-22T05:10:29;2.80;99.90
3846;DHT22;1938;50.812;7.738;2023-02-22T05:12:54;2.70;99.90
3846;DHT22;1938;50.812;7.738;2023-02-22T05:15:21;2.70;99.90
3846;DHT22;1938;50.812;7.738;2023-02-22T05:17:48;2.60;99.90
3846;DHT22;1938;50.812;7.738;2023-02-22T05:20:30;2.50;99.90
3846;DHT22;1938;50.812;7.738;2023-02-22T05:22:57;2.60;99.90
3846;DHT22;1938;50.812;7.738;2023-02-22T05:25:24;2.60;99.90
3846;DHT22;1938;50.812;7.738;2023-02-22T05:27:51;2.50;99.90
3846;DHT22;1938;50.812;7.738;2023-02-22T05:30:17;2.50;99.90
3846;DHT22;1938;50.812;7.738;2023-02-22T05:32:43;2.50;99.90
3846;DHT22;1938;50.812;7.738;2023-02-22T05:35:08;2.50;99.90
3846;DHT22;1938;50.812;7.738;2023-02-22T05:37:34;2.50;99.90
3846;DHT22;1938;50.812;7.738;2023-02-22T05:40:01;2.50;99.90
3846;DHT22;1938;50.812;7.738;2023-02-22T05:42:27;2.40;99.90
3846;DHT22;1938;50.812;7.738;2023-02-22T05:44:53;2.40;99.90
3846;DHT22;1938;50.812;7.738;2023-02-22T05:47:18;2.40;99.90
3846;DHT22;1938;50.812;7.738;2023-02-22T05:49:44;2.30;99.90
3846;DHT22;1938;50.812;7.738;2023-02-22T05:52:09;2.30;99.90
3846;DHT22;1938;50.812;7.738;2023-02-22T05:54:35;2.30;99.90
3846;DHT22;1938;50.812;7.738;2023-02-22T05:57:00;2.30;99.90
3846;DHT22;1938;50.812;7.738;2023-02-22T05:59:27;2.30;99.90
3846;DHT22;1938;50.812;7.738;2023-02-22T06:01:54;2.30;99.90
3846;DHT22;1938;50.812;7.738;2023-02-22T06:04:20;2.30;99.90
3846;DHT22;1938;50.812;7.738;2023-02-22T06:06:45;2.20;99.90
3846;DHT22;1938;50.812;7.738;2023-02-22T06:09:10;2.30;99.90
3846;DHT22;1938;50.812;7.738;2023-02-22T06:11:36;2.30;99.90
3846;DHT22;1938;50.812;7.738;2023-02-22T06:14:02;2.30;99.90
3846;DHT22;1938;50.812;7.738;2023-02-22T06:16:27;2.20;99.90
3846;DHT22;1938;50.812;7.738;2023-02-22T06:18:53;2.20;99.90
3846;DHT22;1938;50.812;7.738;2023-02-22T06:21:18;2.20;99.90
3846;DHT22;1938;50.812;7.738;2023-02-22T06:23:44;2.10;99.90
3846;DHT22;1938;50.812;7.738;2023-02-22T06:26:09;2.10;99.90
3846;DHT22;1938;50.812;7.738;2023-02-22T06:28:35;2.10;99.90
3846;DHT22;1938;50.812;7.738;2023-02-22T06:31:01;2.10;99.90
3846;DHT22;1938;50.812;7.738;2023-02-22T06:33:26;2.10;99.90
3846;DHT22;1938;50.812;7.738;2023-02-22T06:35:53;2.10;99.90
3846;DHT22;1938;50.812;7.738;2023-02-22T06:38:23;2.20;99.90
3846;DHT22;1938;50.812;7.738;2023-02-22T06:40:49;2.30;99.90
3846;DHT22;1938;50.812;7.738;2023-02-22T06:43:15;2.30;99.90
3846;DHT22;1938;50.812;7.738;2023-02-22T06:45:41;2.30;99.90
3846;DHT22;1938;50.812;7.738;2023-02-22T06:48:06;2.30;99.90
3846;DHT22;1938;50.812;7.738;2023-02-22T06:50:33;2.30;99.90
3846;DHT22;1938;50.812;7.738;2023-02-22T06:52:59;2.30;99.90
3846;DHT22;1938;50.812;7.738;2023-02-22T06:55:27;2.50;99.90
3846;DHT22;1938;50.812;7.738;2023-02-22T06:57:53;2.60;99.90
3846;DHT22;1938;50.812;7.738;2023-02-22T07:00:21;2.60;99.90
3846;DHT22;1938;50.812;7.738;2023-02-22T07:02:47;2.70;99.90
3846;DHT22;1938;50.812;7.738;2023-02-22T07:05:14;2.70;99.90
3846;DHT22;1938;50.812;7.738;2023-02-22T07:07:41;2.90;99.90
3846;DHT22;1938;50.812;7.738;2023-02-22T07:10:08;2.80;99.90
3846;DHT22;1938;50.812;7.738;2023-02-22T07:12:39;2.90;99.90
3846;DHT22;1938;50.812;7.738;2023-02-22T07:15:05;2.90;99.90
3846;DHT22;1938;50.812;7.738;2023-02-22T07:17:31;3.00;99.90
3846;DHT22;1938;50.812;7.738;2023-02-22T07:19:56;3.10;99.90
3846;DHT22;1938;50.812;7.738;2023-02-22T07:22:22;3.10;99.90
3846;DHT22;1938;50.812;7.738;2023-02-22T07:24:47;3.20;99.90
3846;DHT22;1938;50.812;7.738;2023-02-22T07:27:13;3.30;99.90
3846;DHT22;1938;50.812;7.738;2023-02-22T07:29:41;3.40;99.90
3846;DHT22;1938;50.812;7.738;2023-02-22T07:32:07;3.40;99.90
3846;DHT22;1938;50.812;7.738;2023-02-22T07:34:32;3.50;99.90
3846;DHT22;1938;50.812;7.738;2023-02-22T07:36:58;3.40;99.90
3846;DHT22;1938;50.812;7.738;2023-02-22T07:39:23;3.50;99.90
3846;DHT22;1938;50.812;7.738;2023-02-22T07:41:49;3.50;99.90
3846;DHT22;1938;50.812;7.738;2023-02-22T07:44:14;3.50;99.90
3846;DHT22;1938;50.812;7.738;2023-02-22T07:46:46;3.60;99.90
3846;DHT22;1938;50.812;7.738;2023-02-22T07:49:11;3.60;99.90
3846;DHT22;1938;50.812;7.738;2023-02-22T07:51:37;3.60;99.90
3846;DHT22;1938;50.812;7.738;2023-02-22T07:54:02;3.60;99.90
3846;DHT22;1938;50.812;7.738;2023-02-22T07:56:28;3.80;99.90
3846;DHT22;1938;50.812;7.738;2023-02-22T07:58:54;3.80;99.90
3846;DHT22;1938;50.812;7.738;2023-02-22T08:01:20;4.00;99.90
3846;DHT22;1938;50.812;7.738;2023-02-22T08:03:46;4.00;99.90
3846;DHT22;1938;50.812;7.738;2023-02-22T08:06:12;4.10;99.90
3846;DHT22;1938;50.812;7.738;2023-02-22T08:08:37;4.30;99.90
3846;DHT22;1938;50.812;7.738;2023-02-22T08:11:03;4.00;99.90
3846;DHT22;1938;50.812;7.738;2023-02-22T08:13:30;4.00;99.90
3846;DHT22;1938;50.812;7.738;2023-02-22T08:15:55;4.10;99.90
3846;DHT22;1938;50.812;7.738;2023-02-22T08:18:22;4.00;99.90
3846;DHT22;1938;50.812;7.738;2023-02-22T08:20:50;4.10;99.90
3846;DHT22;1938;50.812;7.738;2023-02-22T08:23:17;3.90;99.90
3846;DHT22;1938;50.812;7.738;2023-02-22T08:25:43;3.90;99.90
3846;DHT22;1938;50.812;7.738;2023-02-22T08:28:11;3.90;99.90
3846;DHT22;1938;50.812;7.738;2023-02-22T08:30:38;4.00;99.90
3846;DHT22;1938;50.812;7.738;2023-02-22T08:33:04;4.10;99.90
3846;DHT22;1938;50.812;7.738;2023-02-22T08:35:31;4.20;99.90
3846;DHT22;1938;50.812;7.738;2023-02-22T08:38:01;4.30;99.90
3846;DHT22;1938;50.812;7.738;2023-02-22T08:40:29;4.40;99.90
3846;DHT22;1938;50.812;7.738;2023-02-22T08:42:58;4.50;99.90
3846;DHT22;1938;50.812;7.738;2023-02-22T08:45:24;4.70;99.90
3846;DHT22;1938;50.812;7.738;2023-02-22T08:47:50;4.80;99.90
3846;DHT22;1938;50.812;7.738;2023-02-22T08:50:19;4.70;99.90
3846;DHT22;1938;50.812;7.738;2023-02-22T08:52:45;5.00;99.90
3846;DHT22;1938;50.812;7.738;2023-02-22T08:55:11;5.10;99.90
3846;DHT22;1938;50.812;7.738;2023-02-22T08:57:37;5.40;99.90
3846;DHT22;1938;50.812;7.738;2023-02-22T09:00:06;5.40;99.90
3846;DHT22;1938;50.812;7.738;2023-02-22T09:02:32;5.40;99.90
3846;DHT22;1938;50.812;7.738;2023-02-22T09:04:57;5.50;99.90
3846;DHT22;1938;50.812;7.738;2023-02-22T09:07:24;5.50;99.90
3846;DHT22;1938;50.812;7.738;2023-02-22T09:09:49;5.60;99.90
3846;DHT22;1938;50.812;7.738;2023-02-22T09:12:15;5.50;99.90
3846;DHT22;1938;50.812;7.738;2023-02-22T09:14:40;5.50;99.90
3846;DHT22;1938;50.812;7.738;2023-02-22T09:17:07;5.60;99.90
3846;DHT22;1938;50.812;7.738;2023-02-22T09:19:32;5.90;99.90
3846;DHT22;1938;50.812;7.738;2023-02-22T09:21:59;6.00;99.90
3846;DHT22;1938;50.812;7.738;2023-02-22T09:24:25;6.00;99.90
3846;DHT22;1938;50.812;7.738;2023-02-22T09:26:51;6.00;99.90
3846;DHT22;1938;50.812;7.738;2023-02-22T09:29:22;6.20;99.90
3846;DHT22;1938;50.812;7.738;2023-02-22T09:31:49;6.10;99.90
3846;DHT22;1938;50.812;7.738;2023-02-22T09:34:16;6.20;99.90
3846;DHT22;1938;50.812;7.738;2023-02-22T09:36:43;6.20;99.90
3846;DHT22;1938;50.812;7.738;2023-02-22T09:39:10;6.20;99.90
3846;DHT22;1938;50.812;7.738;2023-02-22T09:42:07;6.40;99.90
3846;DHT22;1938;50.812;7.738;2023-02-22T09:44:46;6.60;99.90
3846;DHT22;1938;50.812;7.738;2023-02-22T09:47:21;6.80;99.90
3846;DHT22;1938;50.812;7.738;2023-02-22T09:50:03;6.90;99.90
3846;DHT22;1938;50.812;7.738;2023-02-22T09:52:31;7.00;99.90
3846;DHT22;1938;50.812;7.738;2023-02-22T09:57:43;7.20;99.90
3846;DHT22;1938;50.812;7.738;2023-02-22T10:00:19;7.20;99.90
3846;DHT22;1938;50.812;7.738;2023-02-22T10:03:16;7.40;99.90
3846;DHT22;1938;50.812;7.738;2023-02-22T10:05:40;7.70;99.90
3846;DHT22;1938;50.812;7.738;2023-02-22T10:08:12;7.90;99.90
3846;DHT22;1938;50.812;7.738;2023-02-22T10:10:41;7.90;99.90
3846;DHT22;1938;50.812;7.738;2023-02-22T10:13:24;8.10;99.90
3846;DHT22;1938;50.812;7.738;2023-02-22T10:16:23;8.20;99.90
3846;DHT22;1938;50.812;7.738;2023-02-22T10:19:23;8.10;99.90
3846;DHT22;1938;50.812;7.738;2023-02-22T10:22:13;8.50;99.90
3846;DHT22;1938;50.812;7.738;2023-02-22T10:27:39;9.50;99.90
3846;DHT22;1938;50.812;7.738;2023-02-22T10:30:19;9.90;99.90
3846;DHT22;1938;50.812;7.738;2023-02-22T10:32:51;10.20;99.90
3846;DHT22;1938;50.812;7.738;2023-02-22T10:35:23;10.60;99.90
3846;DHT22;1938;50.812;7.738;2023-02-22T10:37:55;11.00;99.90
3846;DHT22;1938;50.812;7.738;2023-02-22T10:40:23;11.30;99.90
3846;DHT22;1938;50.812;7.738;2023-02-22T10:43:03;11.50;99.90
3846;DHT22;1938;50.812;7.738;2023-02-22T10:45:31;11.70;99.90
3846;DHT22;1938;50.812;7.738;2023-02-22T10:48:01;12.00;99.90
3846;DHT22;1938;50.812;7.738;2023-02-22T10:50:33;12.50;99.90
3846;DHT22;1938;50.812;7.738;2023-02-22T10:52:59;12.80;99.90
3846;DHT22;1938;50.812;7.738;2023-02-22T10:55:25;13.10;99.90
3846;DHT22;1938;50.812;7.738;2023-02-22T10:57:59;13.40;99.90
3846;DHT22;1938;50.812;7.738;2023-02-22T11:00:38;13.30;99.90
3846;DHT22;1938;50.812;7.738;2023-02-22T11:03:19;13.60;99.90
3846;DHT22;1938;50.812;7.738;2023-02-22T11:05:46;14.00;99.90
3846;DHT22;1938;50.812;7.738;2023-02-22T11:10:39;14.40;99.90
3846;DHT22;1938;50.812;7.738;2023-02-22T11:13:57;14.40;99.90
3846;DHT22;1938;50.812;7.738;2023-02-22T11:16:19;14.60;99.90
3846;DHT22;1938;50.812;7.738;2023-02-22T11:18:46;14.70;99.90
3846;DHT22;1938;50.812;7.738;2023-02-22T11:21:12;14.90;99.90
3846;DHT22;1938;50.812;7.738;2023-02-22T11:23:44;15.00;99.90
3846;DHT22;1938;50.812;7.738;2023-02-22T11:26:16;15.20;99.90
3846;DHT22;1938;50.812;7.738;2023-02-22T11:28:47;15.30;99.90
3846;DHT22;1938;50.812;7.738;2023-02-22T11:31:22;15.40;99.90
3846;DHT22;1938;50.812;7.738;2023-02-22T11:33:57;15.50;99.90
3846;DHT22;1938;50.812;7.738;2023-02-22T11:36:35;15.70;99.90
3846;DHT22;1938;50.812;7.738;2023-02-22T11:39:04;15.60;99.90
3846;DHT22;1938;50.812;7.738;2023-02-22T11:41:32;14.80;52.20
3846;DHT22;1938;50.812;7.738;2023-02-22T11:44:20;14.30;4.70
3846;DHT22;1938;50.812;7.738;2023-02-22T11:46:46;13.80;1.00
3846;DHT22;1938;50.812;7.738;2023-02-22T11:49:13;13.70;1.00
3846;DHT22;1938;50.812;7.738;2023-02-22T11:57:47;13.20;36.50
3846;DHT22;1938;50.812;7.738;2023-02-22T12:00:41;13.30;90.40
3846;DHT22;1938;50.812;7.738;2023-02-22T12:03:23;13.40;22.50
3846;DHT22;1938;50.812;7.738;2023-02-22T12:11:25;13.60;1.00
3846;DHT22;1938;50.812;7.738;2023-02-22T12:17:09;13.50;99.90
3846;DHT22;1938;50.812;7.738;2023-02-22T12:19:48;13.50;82.20
3846;DHT22;1938;50.812;7.738;2023-02-22T12:27:25;13.40;1.00
3846;DHT22;1938;50.812;7.738;2023-02-22T12:30:17;13.40;1.00
3846;DHT22;1938;50.812;7.738;2023-02-22T12:32:50;13.40;99.90
3846;DHT22;1938;50.812;7.738;2023-02-22T12:35:20;13.40;99.90
3846;DHT22;1938;50.812;7.738;2023-02-22T12:37:58;13.30;33.80
3846;DHT22;1938;50.812;7.738;2023-02-22T12:43:18;13.10;1.00
3846;DHT22;1938;50.812;7.738;2023-02-22T12:45:59;13.10;1.00
3846;DHT22;1938;50.812;7.738;2023-02-22T12:51:40;13.00;99.90
3846;DHT22;1938;50.812;7.738;2023-02-22T12:56:56;13.10;99.90
3846;DHT22;1938;50.812;7.738;2023-02-22T12:59:35;13.00;99.90
3846;DHT22;1938;50.812;7.738;2023-02-22T13:02:26;13.00;99.90
3846;DHT22;1938;50.812;7.738;2023-02-22T13:04:54;13.00;99.90
3846;DHT22;1938;50.812;7.738;2023-02-22T13:07:40;12.90;99.90
3846;DHT22;1938;50.812;7.738;2023-02-22T13:21:22;12.80;34.30
3846;DHT22;1938;50.812;7.738;2023-02-22T13:24:04;12.80;14.20
3846;DHT22;1938;50.812;7.738;2023-02-22T13:26:38;12.80;9.10
3846;DHT22;1938;50.812;7.738;2023-02-22T13:46:18;12.60;1.00
3846;DHT22;1938;50.812;7.738;2023-02-22T13:57:37;12.60;1.00
3846;DHT22;1938;50.812;7.738;2023-02-22T14:05:52;12.60;99.90
3846;DHT22;1938;50.812;7.738;2023-02-22T14:16:26;12.60;99.90
3846;DHT22;1938;50.812;7.738;2023-02-22T14:19:13;12.70;99.90
3846;DHT22;1938;50.812;7.738;2023-02-22T14:22:02;12.50;99.90
3846;DHT22;1938;50.812;7.738;2023-02-22T14:24:38;12.40;99.90
3846;DHT22;1938;50.812;7.738;2023-02-22T14:27:07;12.40;99.90
3846;DHT22;1938;50.812;7.738;2023-02-22T14:29:33;12.30;99.90
3846;DHT22;1938;50.812;7.738;2023-02-22T14:32:06;12.40;99.90
3846;DHT22;1938;50.812;7.738;2023-02-22T14:34:42;12.40;99.90
3846;DHT22;1938;50.812;7.738;2023-02-22T14:37:13;12.40;99.90
3846;DHT22;1938;50.812;7.738;2023-02-22T14:39:43;12.40;99.90
3846;DHT22;1938;50.812;7.738;2023-02-22T14:42:30;12.30;95.90
3846;DHT22;1938;50.812;7.738;2023-02-22T14:45:25;12.40;77.20
3846;DHT22;1938;50.812;7.738;2023-02-22T14:48:03;12.40;59.80
3846;DHT22;1938;50.812;7.738;2023-02-22T14:56:24;12.40;53.20
3846;DHT22;1938;50.812;7.738;2023-02-22T14:58:56;12.30;25.20
3846;DHT22;1938;50.812;7.738;2023-02-22T15:03:55;12.30;23.80
3846;DHT22;1938;50.812;7.738;2023-02-22T15:06:24;12.30;24.60
3846;DHT22;1938;50.812;7.738;2023-02-22T15:11:31;12.20;5.20
3846;DHT22;1938;50.812;7.738;2023-02-22T15:13:57;12.30;1.00
3846;DHT22;1938;50.812;7.738;2023-02-22T15:16:26;12.30;1.00
3846;DHT22;1938;50.812;7.738;2023-02-22T15:18:59;12.30;2.30
3846;DHT22;1938;50.812;7.738;2023-02-22T15:21:27;12.30;1.00
3846;DHT22;1938;50.812;7.738;2023-02-22T15:24:02;12.30;1.00
3846;DHT22;1938;50.812;7.738;2023-02-22T15:26:37;12.20;1.00
3846;DHT22;1938;50.812;7.738;2023-02-22T15:31:37;12.20;1.00
3846;DHT22;1938;50.812;7.738;2023-02-22T15:34:30;12.20;1.00
3846;DHT22;1938;50.812;7.738;2023-02-22T15:37:01;12.20;1.00
3846;DHT22;1938;50.812;7.738;2023-02-22T15:39:36;12.20;1.00
3846;DHT22;1938;50.812;7.738;2023-02-22T15:42:09;12.10;1.00
3846;DHT22;1938;50.812;7.738;2023-02-22T15:44:37;12.10;1.00
3846;DHT22;1938;50.812;7.738;2023-02-22T15:47:04;12.00;6.60
3846;DHT22;1938;50.812;7.738;2023-02-22T15:49:30;12.00;1.00
3846;DHT22;1938;50.812;7.738;2023-02-22T15:52:07;12.00;1.00
3846;DHT22;1938;50.812;7.738;2023-02-22T15:54:42;12.00;1.00
3846;DHT22;1938;50.812;7.738;2023-02-22T15:57:13;12.00;1.00
3846;DHT22;1938;50.812;7.738;2023-02-22T15:59:46;11.90;4.00
3846;DHT22;1938;50.812;7.738;2023-02-22T16:02:29;11.90;1.00
3846;DHT22;1938;50.812;7.738;2023-02-22T16:05:01;11.80;12.50
3846;DHT22;1938;50.812;7.738;2023-02-22T16:07:29;11.70;42.50
3846;DHT22;1938;50.812;7.738;2023-02-22T16:09:55;11.70;33.60
3846;DHT22;1938;50.812;7.738;2023-02-22T16:14:47;11.60;16.50
3846;DHT22;1938;50.812;7.738;2023-02-22T16:22:46;11.70;1.00
3846;DHT22;1938;50.812;7.738;2023-02-22T16:27:47;11.70;33.60
3846;DHT22;1938;50.812;7.738;2023-02-22T16:32:42;11.80;23.70
3846;DHT22;1938;50.812;7.738;2023-02-22T16:35:08;11.90;21.00
3846;DHT22;1938;50.812;7.738;2023-02-22T16:37:47;11.90;1.00
3846;DHT22;1938;50.812;7.738;2023-02-22T16:40:34;12.00;1.00
3846;DHT22;1938;50.812;7.738;2023-02-22T16:43:05;12.00;1.00
3846;DHT22;1938;50.812;7.738;2023-02-22T16:45:31;12.00;1.00
3846;DHT22;1938;50.812;7.738;2023-02-22T16:47:59;12.10;1.00
3846;DHT22;1938;50.812;7.738;2023-02-22T16:50:25;12.10;1.00
3846;DHT22;1938;50.812;7.738;2023-02-22T16:52:53;12.10;1.00
3846;DHT22;1938;50.812;7.738;2023-02-22T16:55:20;12.10;1.00
3846;DHT22;1938;50.812;7.738;2023-02-22T16:57:47;12.00;1.00
3846;DHT22;1938;50.812;7.738;2023-02-22T17:00:20;12.00;1.00
3846;DHT22;1938;50.812;7.738;2023-02-22T17:02:59;12.00;1.00
3846;DHT22;1938;50.812;7.738;2023-02-22T17:05:28;11.90;1.00
3846;DHT22;1938;50.812;7.738;2023-02-22T17:07:54;11.90;1.00
3846;DHT22;1938;50.812;7.738;2023-02-22T17:10:20;11.80;1.00
3846;DHT22;1938;50.812;7.738;2023-02-22T17:12:48;11.80;1.00
3846;DHT22;1938;50.812;7.738;2023-02-22T17:17:49;11.70;1.00
3846;DHT22;1938;50.812;7.738;2023-02-22T17:20:15;11.70;1.00
3846;DHT22;1938;50.812;7.738;2023-02-22T17:22:49;11.60;1.00
3846;DHT22;1938;50.812;7.738;2023-02-22T17:25:23;11.60;1.00
3846;DHT22;1938;50.812;7.738;2023-02-22T17:27:50;11.50;1.00
3846;DHT22;1938;50.812;7.738;2023-02-22T17:30:16;11.50;1.00
3846;DHT22;1938;50.812;7.738;2023-02-22T17:32:42;11.50;1.00
3846;DHT22;1938;50.812;7.738;2023-02-22T17:35:07;11.50;1.00
3846;DHT22;1938;50.812;7.738;2023-02-22T17:37:33;11.50;1.00
3846;DHT22;1938;50.812;7.738;2023-02-22T17:39:59;11.40;1.00
3846;DHT22;1938;50.812;7.738;2023-02-22T17:42:24;11.40;1.00
3846;DHT22;1938;50.812;7.738;2023-02-22T17:44:50;11.40;1.00
3846;DHT22;1938;50.812;7.738;2023-02-22T17:47:16;11.40;6.20
3846;DHT22;1938;50.812;7.738;2023-02-22T17:49:42;11.40;3.70
3846;DHT22;1938;50.812;7.738;2023-02-22T17:52:08;11.40;3.00
3846;DHT22;1938;50.812;7.738;2023-02-22T17:54:34;11.20;1.00
3846;DHT22;1938;50.812;7.738;2023-02-22T17:56:59;10.90;99.90
3846;DHT22;1938;50.812;7.738;2023-02-22T17:59:26;11.00;99.90
3846;DHT22;1938;50.812;7.738;2023-02-22T18:01:52;10.90;99.90
3846;DHT22;1938;50.812;7.738;2023-02-22T18:04:17;10.60;99.90
3846;DHT22;1938;50.812;7.738;2023-02-22T18:06:43;10.60;1.00
3846;DHT22;1938;50.812;7.738;2023-02-22T18:09:09;10.60;1.00
3846;DHT22;1938;50.812;7.738;2023-02-22T18:11:36;10.50;99.90
3846;DHT22;1938;50.812;7.738;2023-02-22T18:14:04;10.40;1.00
3846;DHT22;1938;50.812;7.738;2023-02-22T18:16:32;10.30;1.00
3846;DHT22;1938;50.812;7.738;2023-02-22T18:18:57;10.30;1.00
3846;DHT22;1938;50.812;7.738;2023-02-22T18:21:25;10.20;1.00
3846;DHT22;1938;50.812;7.738;2023-02-22T18:23:52;10.20;51.90
3846;DHT22;1938;50.812;7.738;2023-02-22T18:26:20;10.20;31.80
3846;DHT22;1938;50.812;7.738;2023-02-22T18:28:46;10.20;35.80
3846;DHT22;1938;50.812;7.738;2023-02-22T18:31:17;10.20;87.50
3846;DHT22;1938;50.812;7.738;2023-02-22T18:33:44;10.10;99.90
3846;DHT22;1938;50.812;7.738;2023-02-22T18:36:11;10.10;99.90
3846;DHT22;1938;50.812;7.738;2023-02-22T18:38:39;10.10;99.90
3846;DHT22;1938;50.812;7.738;2023-02-22T18:41:14;10.10;99.90
3846;DHT22;1938;50.812;7.738;2023-02-22T18:43:41;10.00;99.90
3846;DHT22;1938;50.812;7.738;2023-02-22T18:46:17;9.90;1.00
3846;DHT22;1938;50.812;7.738;2023-02-22T18:48:44;9.90;1.00
3846;DHT22;1938;50.812;7.738;2023-02-22T18:51:13;9.90;1.00
3846;DHT22;1938;50.812;7.738;2023-02-22T18:53:40;9.90;1.00